Time;durP1;ratioP1;P1;durP2;ratioP2;P2;SDS_P1;SDS_P2;PMS_P1;PMS_P2;Temp;Humidity;BMP_temperature;BMP_pressure;BME280_temperature;BME280_humidity;BME280_pressure;Samples;Min_cycle;Max_cycle;Signal;HPM_P1;HPM_P2
2021/09/29 00:00:21;;;;;;;;;;;10.20;99.90;;;;;;5114848;28;19935;-76
2021/09/29 00:02:48;;;;;;;;;;;10.10;99.90;;;;;;5115238;28;19930;-76
2021/09/29 00:05:18;;;;;;;;;;;10.10;99.90;;;;;;5115253;28;20367;-76
2021/09/29 00:07:46;;;;;;;;;;;10.00;99.90;;;;;;5115365;28;19923;-76
2021/09/29 00:10:14;;;;;;;;;;;10.10;99.90;;;;;;5115391;28;20344;-76
2021/09/29 00:12:43;;;;;;;;;;;10.00;99.90;;;;;;5115504;28;19924;-76
2021/09/29 00:15:13;;;;;;;;;;;10.00;99.90;;;;;;5115237;28;19924;-76
2021/09/29 00:17:41;;;;;;;;;;;9.90;99.90;;;;;;5115342;28;19923;-76
2021/09/29 00:20:10;;;;;;;;;;;9.90;99.90;;;;;;5115300;28;19989;-76
2021/09/29 00:22:39;;;;;;;;;;;9.90;99.90;;;;;;5115191;28;19942;-76
2021/09/29 00:25:11;;;;;;;;;;;9.90;99.90;;;;;;5115104;28;19938;-76
2021/09/29 00:27:39;;;;;;;;;;;9.80;99.90;;;;;;5115299;28;20252;-76
2021/09/29 00:30:10;;;;;;;;;;;9.90;99.90;;;;;;5116593;28;19938;-76
2021/09/29 00:32:40;;;;;;;;;;;9.80;99.90;;;;;;5118940;28;20387;-76
2021/09/29 00:35:09;;;;;;;;;;;9.70;99.90;;;;;;5118835;28;19942;-76
2021/09/29 00:37:36;;;;;;;;;;;9.80;99.90;;;;;;5118898;28;19923;-76
2021/09/29 00:40:07;;;;;;;;;;;9.80;99.90;;;;;;5119043;28;19923;-76
2021/09/29 00:42:35;;;;;;;;;;;9.80;99.90;;;;;;5118848;28;19924;-76
2021/09/29 00:45:04;;;;;;;;;;;9.80;99.90;;;;;;5118996;28;19924;-76
2021/09/29 00:47:32;;;;;;;;;;;9.80;99.90;;;;;;5119106;28;19928;-76
2021/09/29 00:50:00;;;;;;;;;;;9.90;99.90;;;;;;5118648;28;20004;-73
2021/09/29 00:52:28;;;;;;;;;;;9.90;99.90;;;;;;5118909;28;19924;-73
2021/09/29 00:54:57;;;;;;;;;;;9.90;99.90;;;;;;5118792;28;19924;-73
2021/09/29 00:57:26;;;;;;;;;;;9.80;99.90;;;;;;5118489;28;20344;-74
2021/09/29 00:59:54;;;;;;;;;;;9.70;99.90;;;;;;5119039;28;19924;-75
2021/09/29 01:02:22;;;;;;;;;;;9.60;99.90;;;;;;5118419;28;19924;-76
2021/09/29 01:04:50;;;;;;;;;;;9.60;99.90;;;;;;5118542;28;19938;-78
2021/09/29 01:07:18;;;;;;;;;;;9.60;99.90;;;;;;5118508;28;19928;-75
2021/09/29 01:09:50;;;;;;;;;;;9.60;99.90;;;;;;5118333;28;19924;-76
2021/09/29 01:12:20;;;;;;;;;;;9.60;99.90;;;;;;5118394;28;19927;-77
2021/09/29 01:14:52;;;;;;;;;;;9.50;99.90;;;;;;5118473;28;19938;-77
2021/09/29 01:17:20;;;;;;;;;;;9.60;99.90;;;;;;5118141;28;19928;-78
2021/09/29 01:20:03;;;;;;;;;;;9.60;99.90;;;;;;5118052;28;19934;-79
2021/09/29 01:22:50;;;;;;;;;;;9.60;99.90;;;;;;5115551;28;19934;-78
2021/09/29 01:25:31;;;;;;;;;;;9.60;99.90;;;;;;5118200;28;19932;-78
2021/09/29 01:28:00;;;;;;;;;;;9.60;99.90;;;;;;5118078;28;20251;-78
2021/09/29 01:30:29;;;;;;;;;;;9.60;99.90;;;;;;5117993;28;19924;-77
2021/09/29 01:32:57;;;;;;;;;;;9.60;99.90;;;;;;5117816;28;19934;-77
2021/09/29 01:35:25;;;;;;;;;;;9.60;99.90;;;;;;5117996;28;19930;-76
2021/09/29 01:37:53;;;;;;;;;;;9.60;99.90;;;;;;5117781;28;19927;-76
2021/09/29 01:40:20;;;;;;;;;;;9.60;99.90;;;;;;5117601;28;19927;-76
2021/09/29 01:42:49;;;;;;;;;;;9.60;99.90;;;;;;5117952;28;19950;-77
2021/09/29 01:45:17;;;;;;;;;;;9.70;99.90;;;;;;5117781;28;19924;-77
2021/09/29 01:47:44;;;;;;;;;;;9.70;99.90;;;;;;5117907;28;19924;-76
2021/09/29 01:50:12;;;;;;;;;;;9.70;99.90;;;;;;5117528;28;20335;-76
2021/09/29 01:52:39;;;;;;;;;;;9.70;99.90;;;;;;5117377;28;20277;-76
2021/09/29 01:55:06;;;;;;;;;;;9.60;99.90;;;;;;5117489;28;19924;-76
2021/09/29 01:57:35;;;;;;;;;;;9.60;99.90;;;;;;5117414;28;19938;-76
2021/09/29 02:00:05;;;;;;;;;;;9.60;99.90;;;;;;5117582;28;19924;-76
2021/09/29 02:02:34;;;;;;;;;;;9.50;99.90;;;;;;5117598;28;19924;-76
2021/09/29 02:05:05;;;;;;;;;;;9.50;99.90;;;;;;5117493;28;19946;-76
2021/09/29 02:07:33;;;;;;;;;;;9.50;99.90;;;;;;5117339;28;19985;-76
2021/09/29 02:10:01;;;;;;;;;;;9.50;99.90;;;;;;5117211;28;20343;-76
2021/09/29 02:12:29;;;;;;;;;;;9.50;99.90;;;;;;5117239;28;19928;-76
2021/09/29 02:14:57;;;;;;;;;;;9.50;99.90;;;;;;5117415;27;20268;-76
2021/09/29 02:17:26;;;;;;;;;;;9.50;99.90;;;;;;5117084;28;19946;-77
2021/09/29 02:19:55;;;;;;;;;;;9.50;99.90;;;;;;5116982;28;19923;-76
2021/09/29 02:22:23;;;;;;;;;;;9.50;99.90;;;;;;5124659;28;19924;-78
2021/09/29 02:24:51;;;;;;;;;;;9.60;99.90;;;;;;5121457;28;19934;-76
2021/09/29 02:27:18;;;;;;;;;;;9.50;99.90;;;;;;5129794;28;19934;-81
2021/09/29 02:29:45;;;;;;;;;;;9.50;99.90;;;;;;5132151;28;19923;-83
2021/09/29 02:32:13;;;;;;;;;;;9.50;99.90;;;;;;5129377;28;19963;-80
2021/09/29 02:34:57;;;;;;;;;;;9.50;99.90;;;;;;5122316;27;19981;-81
2021/09/29 02:37:26;;;;;;;;;;;9.50;99.90;;;;;;5127699;28;19924;-80
2021/09/29 02:39:53;;;;;;;;;;;9.50;99.90;;;;;;5118753;28;19924;-80
2021/09/29 02:42:20;;;;;;;;;;;9.50;99.90;;;;;;5119466;28;19923;-81
2021/09/29 02:44:47;;;;;;;;;;;9.50;99.90;;;;;;5119154;28;19934;-81
2021/09/29 02:47:15;;;;;;;;;;;9.50;99.90;;;;;;5118505;28;19938;-80
2021/09/29 02:49:42;;;;;;;;;;;9.50;99.90;;;;;;5118011;28;19923;-80
2021/09/29 02:52:09;;;;;;;;;;;9.50;99.90;;;;;;5116774;28;20272;-80
2021/09/29 02:54:37;;;;;;;;;;;9.50;99.90;;;;;;5118783;28;20358;-81
2021/09/29 02:57:06;;;;;;;;;;;9.50;99.90;;;;;;5119703;28;19934;-80
2021/09/29 02:59:34;;;;;;;;;;;9.60;99.90;;;;;;5119872;28;19923;-81
2021/09/29 03:02:02;;;;;;;;;;;9.60;99.90;;;;;;5120441;28;19942;-80
2021/09/29 03:04:30;;;;;;;;;;;9.60;99.90;;;;;;5117721;28;19923;-79
2021/09/29 03:06:57;;;;;;;;;;;9.60;99.90;;;;;;5116606;28;19924;-79
2021/09/29 03:09:25;;;;;;;;;;;9.60;99.90;;;;;;5116226;28;19923;-79
2021/09/29 03:11:53;;;;;;;;;;;9.60;99.90;;;;;;5117039;28;19930;-79
2021/09/29 03:14:20;;;;;;;;;;;9.60;99.90;;;;;;5116233;28;20264;-80
2021/09/29 03:16:48;;;;;;;;;;;9.60;99.90;;;;;;5115736;28;19934;-79
2021/09/29 03:19:16;;;;;;;;;;;9.60;99.90;;;;;;5116796;28;20014;-80
2021/09/29 03:21:44;;;;;;;;;;;9.50;99.90;;;;;;5116651;28;19923;-80
2021/09/29 03:24:18;;;;;;;;;;;9.50;99.90;;;;;;5116293;28;19923;-79
2021/09/29 03:26:47;;;;;;;;;;;9.50;99.90;;;;;;5116119;28;19950;-79
2021/09/29 03:29:17;;;;;;;;;;;9.50;99.90;;;;;;5116303;28;19934;-79
2021/09/29 03:31:45;;;;;;;;;;;9.50;99.90;;;;;;5115830;28;20366;-80
2021/09/29 03:34:13;;;;;;;;;;;9.50;99.90;;;;;;5118012;28;19924;-80
2021/09/29 03:36:40;;;;;;;;;;;9.50;99.90;;;;;;5118392;28;19923;-80
2021/09/29 03:39:07;;;;;;;;;;;9.60;99.90;;;;;;5116159;28;19927;-79
2021/09/29 03:41:33;;;;;;;;;;;9.60;99.90;;;;;;5115576;28;19924;-79
2021/09/29 03:44:00;;;;;;;;;;;9.60;99.90;;;;;;5116160;28;20339;-80
2021/09/29 03:46:29;;;;;;;;;;;9.60;99.90;;;;;;5115597;28;19924;-80
2021/09/29 03:48:56;;;;;;;;;;;9.60;99.90;;;;;;5116057;28;19924;-79
2021/09/29 03:51:22;;;;;;;;;;;9.60;99.90;;;;;;5115881;28;19925;-79
2021/09/29 03:53:49;;;;;;;;;;;9.60;99.90;;;;;;5115720;28;20343;-79
2021/09/29 03:56:20;;;;;;;;;;;9.60;99.90;;;;;;5117412;28;19924;-80
2021/09/29 03:58:47;;;;;;;;;;;9.50;99.90;;;;;;5120710;28;19970;-80
2021/09/29 04:01:15;;;;;;;;;;;9.50;99.90;;;;;;5125488;28;19923;-81
2021/09/29 04:03:45;;;;;;;;;;;9.50;99.90;;;;;;5123736;28;19938;-81
2021/09/29 04:08:53;;;;;;;;;;;9.50;99.90;;;;;;5488177;22;19924;-82
2021/09/29 04:14:09;;;;;;;;;;;9.50;99.90;;;;;;5096117;28;20376;-83
2021/09/29 04:16:38;;;;;;;;;;;9.50;99.90;;;;;;5100707;28;19963;-84
2021/09/29 04:19:08;;;;;;;;;;;9.50;99.90;;;;;;5097450;28;20007;-82
2021/09/29 04:21:37;;;;;;;;;;;9.50;99.90;;;;;;5097912;28;19964;-83
2021/09/29 04:24:05;;;;;;;;;;;9.50;99.90;;;;;;5095689;28;19971;-82
2021/09/29 04:26:32;;;;;;;;;;;9.50;99.90;;;;;;5090116;28;19935;-81
2021/09/29 04:28:59;;;;;;;;;;;9.50;99.90;;;;;;5086205;28;20355;-81
2021/09/29 04:31:26;;;;;;;;;;;9.50;99.90;;;;;;5084231;28;19924;-81
2021/09/29 04:33:53;;;;;;;;;;;9.40;99.90;;;;;;5082981;28;19925;-80
2021/09/29 04:36:21;;;;;;;;;;;9.40;99.90;;;;;;5081120;28;20271;-80
2021/09/29 04:38:48;;;;;;;;;;;9.40;99.90;;;;;;5079783;28;19924;-80
2021/09/29 04:41:15;;;;;;;;;;;9.40;99.90;;;;;;5081015;28;19928;-81
2021/09/29 04:43:42;;;;;;;;;;;9.30;99.90;;;;;;5097106;28;19988;-81
2021/09/29 04:46:09;;;;;;;;;;;9.30;99.90;;;;;;5089185;28;19982;-81
2021/09/29 04:48:36;;;;;;;;;;;9.30;99.90;;;;;;5085390;28;19924;-80
2021/09/29 04:51:03;;;;;;;;;;;9.30;99.90;;;;;;5083999;28;19924;-80
2021/09/29 04:53:31;;;;;;;;;;;9.30;99.90;;;;;;5085016;28;19925;-80
2021/09/29 04:56:00;;;;;;;;;;;9.30;99.90;;;;;;5086541;28;19924;-79
2021/09/29 04:58:27;;;;;;;;;;;9.30;99.90;;;;;;5094180;28;19924;-81
2021/09/29 05:00:53;;;;;;;;;;;9.30;99.90;;;;;;5093052;28;19939;-81
2021/09/29 05:03:20;;;;;;;;;;;9.30;99.90;;;;;;5090404;28;19925;-80
2021/09/29 05:05:47;;;;;;;;;;;9.30;99.90;;;;;;5087310;28;20352;-81
2021/09/29 05:08:19;;;;;;;;;;;9.30;99.90;;;;;;5085184;28;19999;-80
2021/09/29 05:10:50;;;;;;;;;;;9.30;99.90;;;;;;5092380;28;19924;-81
2021/09/29 05:13:17;;;;;;;;;;;9.30;99.90;;;;;;5093962;28;19924;-81
2021/09/29 05:15:47;;;;;;;;;;;9.30;99.90;;;;;;5099469;28;19916;-82
2021/09/29 05:20:49;;;;;;;;;;;9.20;99.90;;;;;;5604180;22;19936;-80
2021/09/29 05:28:28;;;;;;;;;;;9.10;99.90;;;;;;5649766;22;19908;-81
2021/09/29 05:30:56;;;;;;;;;;;9.10;99.90;;;;;;5076580;28;19944;-81
2021/09/29 05:33:24;;;;;;;;;;;9.10;99.90;;;;;;5078030;28;19988;-81
2021/09/29 05:35:51;;;;;;;;;;;9.10;99.90;;;;;;5073526;28;19925;-80
2021/09/29 05:38:18;;;;;;;;;;;9.10;99.90;;;;;;5062196;28;19935;-79
2021/09/29 05:40:44;;;;;;;;;;;9.10;99.90;;;;;;5061214;28;19935;-79
2021/09/29 05:43:11;;;;;;;;;;;9.10;99.90;;;;;;5062905;28;19931;-79
2021/09/29 05:45:40;;;;;;;;;;;9.10;99.90;;;;;;5061036;28;20351;-79
2021/09/29 05:48:07;;;;;;;;;;;9.10;99.90;;;;;;5058129;28;19944;-78
2021/09/29 05:50:35;;;;;;;;;;;9.10;99.90;;;;;;5057555;28;19956;-79
2021/09/29 05:53:02;;;;;;;;;;;9.10;99.90;;;;;;5057336;28;19935;-78
2021/09/29 05:55:29;;;;;;;;;;;9.00;99.90;;;;;;5057607;28;20367;-79
2021/09/29 05:57:55;;;;;;;;;;;9.00;99.90;;;;;;5057531;28;19931;-78
2021/09/29 06:00:22;;;;;;;;;;;9.00;99.90;;;;;;5056944;28;19925;-78
2021/09/29 06:02:50;;;;;;;;;;;9.10;99.90;;;;;;5056903;28;19924;-78
2021/09/29 06:05:18;;;;;;;;;;;9.10;99.90;;;;;;5056833;28;19925;-78
2021/09/29 06:07:45;;;;;;;;;;;9.10;99.90;;;;;;5057553;28;19951;-79
2021/09/29 06:10:11;;;;;;;;;;;9.00;99.90;;;;;;5063056;28;19925;-79
2021/09/29 06:12:38;;;;;;;;;;;9.10;99.90;;;;;;5062066;28;19925;-79
2021/09/29 06:15:06;;;;;;;;;;;9.10;99.90;;;;;;5059408;28;19925;-79
2021/09/29 06:17:39;;;;;;;;;;;9.10;99.90;;;;;;5057325;28;19925;-79
2021/09/29 06:20:08;;;;;;;;;;;9.20;99.90;;;;;;5060168;28;19924;-79
2021/09/29 06:22:34;;;;;;;;;;;9.20;99.90;;;;;;5058501;28;19935;-80
2021/09/29 06:25:01;;;;;;;;;;;9.20;99.90;;;;;;5058093;28;19947;-79
2021/09/29 06:27:28;;;;;;;;;;;9.20;99.90;;;;;;5057891;28;19943;-79
2021/09/29 06:29:55;;;;;;;;;;;9.20;99.90;;;;;;5057755;28;20372;-79
2021/09/29 06:32:22;;;;;;;;;;;9.20;99.90;;;;;;5057543;28;19935;-79
2021/09/29 06:34:49;;;;;;;;;;;9.20;99.90;;;;;;5056786;28;19925;-79
2021/09/29 06:37:17;;;;;;;;;;;9.30;99.90;;;;;;5056399;28;19955;-78
2021/09/29 06:39:44;;;;;;;;;;;9.40;99.90;;;;;;5055974;28;19929;-78
2021/09/29 06:42:11;;;;;;;;;;;9.40;99.90;;;;;;5056179;28;19925;-80
2021/09/29 06:44:37;;;;;;;;;;;9.40;99.90;;;;;;5057390;28;19991;-81
2021/09/29 06:47:04;;;;;;;;;;;9.40;99.90;;;;;;5063689;28;19928;-81
2021/09/29 06:49:31;;;;;;;;;;;9.40;99.90;;;;;;5066269;28;19925;-80
2021/09/29 06:51:58;;;;;;;;;;;9.40;99.90;;;;;;5066852;28;19924;-80
2021/09/29 06:54:27;;;;;;;;;;;9.40;99.90;;;;;;5070862;28;19968;-80
2021/09/29 06:56:54;;;;;;;;;;;9.30;99.90;;;;;;5068852;28;20329;-80
2021/09/29 06:59:21;;;;;;;;;;;9.30;99.90;;;;;;5077338;28;19972;-82
2021/09/29 07:01:47;;;;;;;;;;;9.30;99.90;;;;;;5078734;28;19972;-82
2021/09/29 07:04:15;;;;;;;;;;;9.30;99.90;;;;;;5078716;28;19921;-82
2021/09/29 07:06:42;;;;;;;;;;;9.30;99.90;;;;;;5078334;28;20215;-82
2021/09/29 07:09:09;;;;;;;;;;;9.40;99.90;;;;;;5076100;28;20000;-82
2021/09/29 07:11:37;;;;;;;;;;;9.30;99.90;;;;;;5074724;28;19932;-82
2021/09/29 07:14:04;;;;;;;;;;;9.40;99.90;;;;;;5071297;28;19929;-81
2021/09/29 07:16:31;;;;;;;;;;;9.40;99.90;;;;;;5067275;28;19992;-81
2021/09/29 07:19:02;;;;;;;;;;;9.30;99.90;;;;;;5063262;28;19947;-82
2021/09/29 07:21:29;;;;;;;;;;;9.30;99.90;;;;;;5064652;28;19925;-81
2021/09/29 07:23:56;;;;;;;;;;;9.30;99.90;;;;;;5063278;28;19960;-81
2021/09/29 07:26:23;;;;;;;;;;;9.30;99.90;;;;;;5063168;28;19935;-81
2021/09/29 07:28:51;;;;;;;;;;;9.30;99.90;;;;;;5059470;28;19924;-80
2021/09/29 07:31:18;;;;;;;;;;;9.30;99.90;;;;;;5061509;28;19925;-79
2021/09/29 07:33:45;;;;;;;;;;;9.30;99.90;;;;;;5059617;28;19925;-79
2021/09/29 07:36:12;;;;;;;;;;;9.30;99.90;;;;;;5056420;28;19925;-79
2021/09/29 07:38:40;;;;;;;;;;;9.30;99.90;;;;;;5055213;28;19990;-79
2021/09/29 07:41:07;;;;;;;;;;;9.40;99.90;;;;;;5055214;28;19991;-79
2021/09/29 07:43:33;;;;;;;;;;;9.40;99.90;;;;;;5054956;28;20467;-79
2021/09/29 07:46:02;;;;;;;;;;;9.40;99.90;;;;;;5055021;28;19925;-79
2021/09/29 07:48:29;;;;;;;;;;;9.40;99.90;;;;;;5055013;28;20337;-79
2021/09/29 07:50:55;;;;;;;;;;;9.40;99.90;;;;;;5055016;28;19931;-79
2021/09/29 07:53:25;;;;;;;;;;;9.40;99.90;;;;;;5054943;28;19932;-78
2021/09/29 07:55:52;;;;;;;;;;;9.50;99.90;;;;;;5055032;28;19960;-78
2021/09/29 07:58:19;;;;;;;;;;;9.50;99.90;;;;;;5055292;28;20412;-78
2021/09/29 08:00:46;;;;;;;;;;;9.50;99.90;;;;;;5054939;28;19931;-78
2021/09/29 08:03:14;;;;;;;;;;;9.50;99.90;;;;;;5055046;28;19925;-78
2021/09/29 08:05:41;;;;;;;;;;;9.50;99.90;;;;;;5054893;28;20265;-78
2021/09/29 08:08:08;;;;;;;;;;;9.60;99.90;;;;;;5054919;28;19979;-78
2021/09/29 08:10:35;;;;;;;;;;;9.70;99.90;;;;;;5054788;28;20255;-77
2021/09/29 08:13:02;;;;;;;;;;;9.80;99.90;;;;;;5054719;28;19924;-77
2021/09/29 08:15:29;;;;;;;;;;;10.00;99.90;;;;;;5054583;28;20315;-78
2021/09/29 08:17:56;;;;;;;;;;;10.00;99.90;;;;;;5054591;28;19924;-78
2021/09/29 08:20:26;;;;;;;;;;;10.00;99.90;;;;;;5054801;28;20304;-77
2021/09/29 08:22:56;;;;;;;;;;;10.10;99.90;;;;;;5054803;28;19924;-77
2021/09/29 08:25:36;;;;;;;;;;;10.10;99.90;;;;;;5054525;28;19979;-77
2021/09/29 08:28:15;;;;;;;;;;;10.00;99.90;;;;;;5054381;28;19925;-77
2021/09/29 08:30:56;;;;;;;;;;;10.00;99.90;;;;;;5054804;28;19952;-77
2021/09/29 08:33:43;;;;;;;;;;;10.00;99.90;;;;;;5054615;28;20036;-76
2021/09/29 08:36:19;;;;;;;;;;;10.10;99.90;;;;;;5054447;28;19924;-77
2021/09/29 08:38:51;;;;;;;;;;;10.10;99.90;;;;;;5054461;28;19925;-77
2021/09/29 08:41:25;;;;;;;;;;;10.10;99.90;;;;;;5054465;28;20002;-77
2021/09/29 08:43:54;;;;;;;;;;;10.10;99.90;;;;;;5054339;28;19924;-78
2021/09/29 08:46:24;;;;;;;;;;;10.10;99.90;;;;;;5054340;28;19936;-77
2021/09/29 08:48:59;;;;;;;;;;;10.10;99.90;;;;;;5054341;28;19925;-77
2021/09/29 08:51:47;;;;;;;;;;;10.20;99.90;;;;;;5056039;28;20024;-77
2021/09/29 09:16:16;;;;;;;;;;;10.40;99.90;;;;;;5057679;28;19974;-78
2021/09/29 09:18:47;;;;;;;;;;;10.40;99.90;;;;;;5057712;28;20023;-78
2021/09/29 09:21:16;;;;;;;;;;;10.40;99.90;;;;;;5057396;28;20260;-78
2021/09/29 09:23:44;;;;;;;;;;;10.40;99.90;;;;;;5057396;28;19935;-79
2021/09/29 09:26:12;;;;;;;;;;;10.40;99.90;;;;;;5057299;28;19924;-78
2021/09/29 09:28:39;;;;;;;;;;;10.40;99.90;;;;;;5057108;28;20329;-79
2021/09/29 09:31:08;;;;;;;;;;;10.40;99.90;;;;;;5057201;28;19929;-78
2021/09/29 09:33:35;;;;;;;;;;;10.50;99.90;;;;;;5057295;28;19925;-79
2021/09/29 09:36:01;;;;;;;;;;;10.50;99.90;;;;;;5057260;28;19924;-80
2021/09/29 09:38:34;;;;;;;;;;;10.50;99.90;;;;;;5057065;28;20007;-80
2021/09/29 09:41:03;;;;;;;;;;;10.60;99.90;;;;;;5057051;28;19991;-79
2021/09/29 09:43:30;;;;;;;;;;;10.60;99.90;;;;;;5057072;28;19929;-79
2021/09/29 09:45:58;;;;;;;;;;;10.70;99.90;;;;;;5057096;28;20029;-80
2021/09/29 09:48:27;;;;;;;;;;;10.80;99.90;;;;;;5056949;28;19925;-82
2021/09/29 09:51:05;;;;;;;;;;;10.80;99.90;;;;;;5056139;28;19924;-80
2021/09/29 09:53:34;;;;;;;;;;;10.80;99.90;;;;;;5056914;28;19982;-80
2021/09/29 09:56:13;;;;;;;;;;;10.90;99.90;;;;;;5056855;28;20349;-80
2021/09/29 09:58:46;;;;;;;;;;;11.00;99.90;;;;;;5057013;28;19924;-82
2021/09/29 10:01:18;;;;;;;;;;;11.10;99.90;;;;;;5056671;28;19924;-81
2021/09/29 10:03:46;;;;;;;;;;;11.30;99.90;;;;;;5056688;28;19929;-79
2021/09/29 10:06:13;;;;;;;;;;;11.60;99.90;;;;;;5056550;28;19931;-80
2021/09/29 10:08:43;;;;;;;;;;;11.70;99.90;;;;;;5056709;28;19924;-81
2021/09/29 10:11:15;;;;;;;;;;;11.80;99.90;;;;;;5056475;28;20007;-81
2021/09/29 10:14:07;;;;;;;;;;;11.70;99.90;;;;;;5055879;28;19924;-82
2021/09/29 10:27:39;;;;;;;;;;;11.80;99.90;;;;;;5014673;28;20021;-82
2021/09/29 10:30:11;;;;;;;;;;;11.90;99.90;;;;;;5014885;28;19968;-83
2021/09/29 10:32:41;;;;;;;;;;;11.80;99.90;;;;;;5014776;28;19926;-81
2021/09/29 10:35:13;;;;;;;;;;;11.70;99.90;;;;;;5014819;28;19930;-84
2021/09/29 10:37:53;;;;;;;;;;;11.70;99.90;;;;;;5014777;28;19925;-82
2021/09/29 10:40:32;;;;;;;;;;;11.50;99.90;;;;;;5014692;28;19965;-83
2021/09/29 10:43:01;;;;;;;;;;;11.30;99.90;;;;;;5014674;28;20031;-85
2021/09/29 10:45:41;;;;;;;;;;;11.10;99.90;;;;;;5014494;28;20028;-83
2021/09/29 10:48:38;;;;;;;;;;;11.10;99.90;;;;;;5014654;28;20036;-83
2021/09/29 11:31:46;;;;;;;;;;;10.50;99.90;;;;;;5056706;28;19931;-91
2021/09/29 12:11:25;;;;;;;;;;;10.60;99.90;;;;;;5141174;23;19924;-84
2021/09/29 12:13:55;;;;;;;;;;;10.70;99.90;;;;;;5094976;28;19928;-85
2021/09/29 12:16:26;;;;;;;;;;;10.70;99.90;;;;;;5095329;28;19947;-85
2021/09/29 12:19:01;;;;;;;;;;;10.80;99.90;;;;;;5094941;28;19928;-86
2021/09/29 12:21:38;;;;;;;;;;;11.00;99.90;;;;;;5095121;28;19970;-85
2021/09/29 12:24:06;;;;;;;;;;;11.10;99.90;;;;;;5095485;28;20337;-86
2021/09/29 12:26:40;;;;;;;;;;;11.10;99.90;;;;;;5098267;28;20015;-87
2021/09/29 12:35:15;;;;;;;;;;;11.20;99.90;;;;;;5065909;28;19979;-86
2021/09/29 12:37:53;;;;;;;;;;;11.00;99.90;;;;;;5059071;28;19925;-85
2021/09/29 12:40:20;;;;;;;;;;;10.90;99.90;;;;;;5058939;28;19924;-86
2021/09/29 12:42:55;;;;;;;;;;;11.00;99.90;;;;;;5058571;28;19935;-85
2021/09/29 12:45:24;;;;;;;;;;;11.00;99.90;;;;;;5058309;28;19925;-84
2021/09/29 12:47:52;;;;;;;;;;;10.90;99.90;;;;;;5078040;28;19924;-85
2021/09/29 12:50:24;;;;;;;;;;;10.80;99.90;;;;;;5078460;28;20043;-86
2021/09/29 12:52:58;;;;;;;;;;;10.80;99.90;;;;;;5078193;28;19924;-85
2021/09/29 12:55:38;;;;;;;;;;;10.70;99.90;;;;;;5078555;28;19950;-85
2021/09/29 12:58:06;;;;;;;;;;;10.70;99.90;;;;;;5077985;28;19924;-84
2021/09/29 13:00:34;;;;;;;;;;;10.70;99.90;;;;;;5077883;28;19935;-86
2021/09/29 13:03:05;;;;;;;;;;;10.70;99.90;;;;;;5078091;28;19925;-86
2021/09/29 13:05:35;;;;;;;;;;;10.70;99.90;;;;;;5078073;28;19924;-85
2021/09/29 13:08:01;;;;;;;;;;;10.80;99.90;;;;;;5077834;28;19974;-87
2021/09/29 13:10:31;;;;;;;;;;;10.90;99.90;;;;;;5077840;28;19924;-86
2021/09/29 13:13:01;;;;;;;;;;;10.90;99.90;;;;;;5077934;28;20025;-86
2021/09/29 13:15:30;;;;;;;;;;;10.80;99.90;;;;;;5077807;28;19932;-87
2021/09/29 13:17:58;;;;;;;;;;;10.80;99.90;;;;;;5077534;28;20006;-86
2021/09/29 13:20:31;;;;;;;;;;;10.80;99.90;;;;;;5077704;28;19924;-85
2021/09/29 13:23:05;;;;;;;;;;;10.80;99.90;;;;;;5077607;28;19924;-85
2021/09/29 13:25:56;;;;;;;;;;;10.80;99.90;;;;;;5077529;28;20264;-85
2021/09/29 13:36:42;;;;;;;;;;;11.00;99.90;;;;;;5057123;28;19967;-86
2021/09/29 13:39:13;;;;;;;;;;;11.00;99.90;;;;;;5057523;28;20256;-86
2021/09/29 13:41:41;;;;;;;;;;;11.00;99.90;;;;;;5057246;28;20254;-86
2021/09/29 13:44:09;;;;;;;;;;;11.00;99.90;;;;;;5057024;28;20329;-84
2021/09/29 13:46:38;;;;;;;;;;;11.00;99.90;;;;;;5056978;28;19928;-85
2021/09/29 13:49:07;;;;;;;;;;;11.00;99.90;;;;;;5056989;28;19931;-87
2021/09/29 13:51:35;;;;;;;;;;;11.00;99.90;;;;;;5056994;28;19925;-87
2021/09/29 13:54:07;;;;;;;;;;;11.00;99.90;;;;;;5056955;28;19935;-86
2021/09/29 13:56:54;;;;;;;;;;;11.20;99.90;;;;;;5057007;28;19948;-87
2021/09/29 14:02:33;;;;;;;;;;;11.50;99.90;;;;;;4976554;28;19926;-85
2021/09/29 14:29:47;;;;;;;;;;;12.10;99.90;;;;;;4975789;28;20373;-79
2021/09/29 14:32:25;;;;;;;;;;;12.10;99.90;;;;;;4975712;28;19937;-80
2021/09/29 14:34:52;;;;;;;;;;;12.00;99.90;;;;;;4975938;28;20370;-80
2021/09/29 14:37:20;;;;;;;;;;;12.00;99.90;;;;;;4993519;28;19935;-78
2021/09/29 14:39:48;;;;;;;;;;;11.90;99.90;;;;;;5056475;28;19929;-78
2021/09/29 14:42:16;;;;;;;;;;;11.80;99.90;;;;;;5056088;28;19935;-80
2021/09/29 14:44:50;;;;;;;;;;;11.80;99.90;;;;;;5055952;28;20269;-80
2021/09/29 14:47:18;;;;;;;;;;;11.70;99.90;;;;;;5055888;28;19929;-81
2021/09/29 14:49:50;;;;;;;;;;;11.60;99.90;;;;;;5054824;28;19943;-80
2021/09/29 14:52:17;;;;;;;;;;;11.40;99.90;;;;;;5055716;28;19940;-82
2021/09/29 14:54:55;;;;;;;;;;;11.30;99.90;;;;;;5055783;28;20268;-80
2021/09/29 14:57:31;;;;;;;;;;;11.20;99.90;;;;;;5055623;28;19931;-80
2021/09/29 15:00:01;;;;;;;;;;;11.10;99.90;;;;;;5055633;28;20393;-80
2021/09/29 15:02:29;;;;;;;;;;;11.10;99.90;;;;;;5055608;28;20024;-80
2021/09/29 15:04:59;;;;;;;;;;;11.20;99.90;;;;;;5055559;28;20008;-81
2021/09/29 15:07:28;;;;;;;;;;;11.20;99.90;;;;;;5055535;28;19936;-79
2021/09/29 15:09:56;;;;;;;;;;;11.30;99.90;;;;;;5067604;28;19990;-81
2021/09/29 15:12:25;;;;;;;;;;;11.50;99.90;;;;;;5075477;28;19931;-79
2021/09/29 15:15:00;;;;;;;;;;;11.50;99.90;;;;;;5075373;28;19934;-79
2021/09/29 15:17:36;;;;;;;;;;;11.60;99.90;;;;;;5075464;28;20280;-81
2021/09/29 15:20:09;;;;;;;;;;;11.80;99.90;;;;;;5075507;28;19925;-80
2021/09/29 15:25:52;;;;;;;;;;;12.10;99.90;;;;;;5014036;28;19922;-83
2021/09/29 15:31:17;;;;;;;;;;;12.30;99.90;;;;;;5013072;28;19935;-81
2021/09/29 15:47:28;;;;;;;;;;;11.90;99.90;;;;;;5013812;28;20052;-79
2021/09/29 15:50:18;;;;;;;;;;;11.70;99.90;;;;;;5013771;28;19933;-78
2021/09/29 15:52:55;;;;;;;;;;;11.70;99.90;;;;;;5013698;28;19925;-80
2021/09/29 15:55:40;;;;;;;;;;;11.60;99.90;;;;;;5011081;28;19925;-80
2021/09/29 16:01:00;;;;;;;;;;;11.60;99.90;;;;;;5044899;28;19924;-80
2021/09/29 16:03:40;;;;;;;;;;;11.60;99.90;;;;;;5059263;28;19924;-80
2021/09/29 16:09:17;;;;;;;;;;;11.60;99.90;;;;;;5058667;28;20364;-79
2021/09/29 16:22:58;;;;;;;;;;;11.40;99.90;;;;;;5058726;28;19986;-80
2021/09/29 16:31:05;;;;;;;;;;;11.10;99.90;;;;;;5058349;28;20372;-80
2021/09/29 16:33:47;;;;;;;;;;;11.10;99.90;;;;;;5058387;28;20367;-80
2021/09/29 16:36:15;;;;;;;;;;;11.10;99.90;;;;;;5058432;28;19924;-80
2021/09/29 16:38:46;;;;;;;;;;;11.10;99.90;;;;;;5058771;28;20257;-80
2021/09/29 16:41:14;;;;;;;;;;;11.00;99.90;;;;;;5058198;28;19924;-81
2021/09/29 16:43:42;;;;;;;;;;;11.00;99.90;;;;;;5058164;28;20256;-81
2021/09/29 16:46:13;;;;;;;;;;;11.00;99.90;;;;;;5058104;28;19943;-80
2021/09/29 16:48:42;;;;;;;;;;;11.00;99.90;;;;;;5058309;28;19924;-80
2021/09/29 16:51:13;;;;;;;;;;;10.90;99.90;;;;;;5058103;28;19935;-81
2021/09/29 16:53:43;;;;;;;;;;;10.90;99.90;;;;;;5058058;28;19925;-81
2021/09/29 16:56:13;;;;;;;;;;;10.90;99.90;;;;;;5058202;28;19936;-80
2021/09/29 16:58:45;;;;;;;;;;;10.80;99.90;;;;;;5058171;28;19955;-81
2021/09/29 17:01:14;;;;;;;;;;;10.80;99.90;;;;;;5058085;28;19956;-80
2021/09/29 17:03:42;;;;;;;;;;;10.80;99.90;;;;;;5058179;28;19982;-81
2021/09/29 17:06:13;;;;;;;;;;;10.80;99.90;;;;;;5057648;28;20345;-81
2021/09/29 17:08:41;;;;;;;;;;;10.80;99.90;;;;;;5057837;28;19931;-81
2021/09/29 17:11:09;;;;;;;;;;;10.80;99.90;;;;;;5057323;28;19929;-80
2021/09/29 17:13:40;;;;;;;;;;;10.80;99.90;;;;;;5057276;28;19935;-81
2021/09/29 17:16:09;;;;;;;;;;;10.70;99.90;;;;;;5057682;28;19939;-81
2021/09/29 17:18:37;;;;;;;;;;;10.70;99.90;;;;;;5057517;28;19924;-82
2021/09/29 17:21:04;;;;;;;;;;;10.70;99.90;;;;;;5057753;28;19924;-84
2021/09/29 17:23:34;;;;;;;;;;;10.70;99.90;;;;;;5057740;28;19931;-81
2021/09/29 17:26:02;;;;;;;;;;;10.70;99.90;;;;;;5057490;28;20074;-80
2021/09/29 17:28:30;;;;;;;;;;;10.70;99.90;;;;;;5057346;28;20304;-81
2021/09/29 17:31:01;;;;;;;;;;;10.70;99.90;;;;;;5057241;28;19925;-82
2021/09/29 17:36:23;;;;;;;;;;;10.70;99.90;;;;;;5051192;28;19999;-80
2021/09/29 17:52:46;;;;;;;;;;;10.60;99.90;;;;;;5057160;28;19931;-81
2021/09/29 17:55:14;;;;;;;;;;;10.60;99.90;;;;;;5056718;28;19972;-80
2021/09/29 17:57:42;;;;;;;;;;;10.60;99.90;;;;;;5056768;28;19931;-81
2021/09/29 18:00:10;;;;;;;;;;;10.60;99.90;;;;;;5056832;28;19931;-80
2021/09/29 18:02:47;;;;;;;;;;;10.50;99.90;;;;;;5057170;28;19928;-78
2021/09/29 18:05:23;;;;;;;;;;;10.50;99.90;;;;;;5057071;28;19963;-83
2021/09/29 18:07:50;;;;;;;;;;;10.50;99.90;;;;;;5056749;28;20023;-81
2021/09/29 18:10:20;;;;;;;;;;;10.40;99.90;;;;;;5056510;28;19935;-80
2021/09/29 18:12:49;;;;;;;;;;;10.40;99.90;;;;;;5056652;28;20358;-81
2021/09/29 18:15:17;;;;;;;;;;;10.40;99.90;;;;;;5056455;28;19933;-80
2021/09/29 18:17:46;;;;;;;;;;;10.40;99.90;;;;;;5056440;28;20261;-80
2021/09/29 18:20:15;;;;;;;;;;;10.40;99.90;;;;;;5056381;28;19924;-81
2021/09/29 18:22:45;;;;;;;;;;;10.40;99.90;;;;;;5056058;28;19961;-79